Terminal Aerodrome Forecast
Issued by NWS

Home | Current Version | Previous Version | Text Only | Print | Product List | Glossary On
Versions: 1 2 3 4 5 6 7 8 9 10 11 12 13 14 15 16 17 18 19
000
FTUS43 KGRB 261100
TAFATW
TAF
KATW 261140Z 2612/2712 16005KT P6SM OVC070
     FM261700 16008KT 2SM -SN BKN015 OVC025
     FM270400 11005KT 2SM -SN SCT006 OVC012
     FM270800 06004KT 5SM -SN SCT006 OVC012=

USA.gov is the U.S. government's official web portal to all federal, state and local government web resources and services.